Arklow Rogue — EIGD — position and weather

sailwx.info

Track history (hours):
 
Tides and Currents Weather Stations Pressure Air Temp Water Temp Dewpoint Dewpoint Depression Visibility Wind Speed Wind Dir Waves Ship Positions

Arklow Rogue

Last reported at 2016-Feb-06 11:33 UTC. Time now 2016-Feb-08 12:27 UTC.
Position N 54°37' W 005°54'.

Length 90 m; draft 3.4 m.

Type: Cargo ship. MMSI: 250000960.

Date/timePositionNaut miles runAvg speedWind from/ knotsBaromVisibWave heightAir tempDewpointWater temp
2016-Feb-06 11:33N 54°37' W 005°54'0 0.0
2016-Feb-04 22:32N 54°37' W 005°54'8 8.3
2016-Feb-04 21:33N 54°42' W 005°43'10 9.7
2016-Feb-04 20:33N 54°40' W 005°27'1111.3
2016-Feb-04 19:34N 54°29' W 005°21'1010.4
2016-Feb-04 18:34N 54°19' W 005°19'1111.0
2016-Feb-04 17:31N 54°08' W 005°20'184 7.6
2016-Feb-03 17:25N 51°23' W 003°05'1011.2
2016-Feb-03 16:33N 51°28' W 002°52'6 6.1
2016-Feb-03 15:33N 51°30' W 002°43'0 0.3
2016-Feb-03 14:33N 51°30' W 002°42'0 0.0
2016-Feb-03 13:33N 51°30' W 002°42'0 0.0
2016-Feb-03 12:33N 51°30' W 002°42'0 0.0
2016-Feb-03 11:33N 51°30' W 002°42'0 0.0
2016-Feb-03 10:33N 51°30' W 002°42'0 0.0
2016-Feb-03 09:33N 51°30' W 002°42'0 0.0
2016-Feb-03 08:33N 51°30' W 002°42'0 0.0
2016-Feb-03 07:33N 51°30' W 002°42'0 0.0
2016-Feb-03 06:33N 51°30' W 002°42'0 0.0
2016-Feb-03 05:33N 51°30' W 002°42'0 0.0
2016-Feb-03 04:33N 51°30' W 002°42'0 0.0
2016-Feb-03 03:33N 51°30' W 002°42'0 0.0
2016-Feb-03 02:33N 51°30' W 002°42'0 0.0
2016-Feb-03 01:33N 51°30' W 002°42'0 0.0
2016-Feb-03 00:33N 51°30' W 002°42'0 0.0
2016-Feb-02 23:33N 51°30' W 002°42'0 0.0
2016-Feb-02 22:33N 51°30' W 002°42'0 0.0
2016-Feb-02 21:33N 51°30' W 002°42'0 0.0
2016-Feb-02 20:33N 51°30' W 002°42'0 0.0
2016-Feb-02 19:33N 51°30' W 002°42'0 0.0
2016-Feb-02 18:30N 51°30' W 002°42'0 0.0
2016-Feb-02 17:33N 51°30' W 002°42'0 0.0
2016-Feb-02 16:33N 51°30' W 002°42'0 0.0
2016-Feb-02 15:34N 51°30' W 002°42'0 0.0
2016-Feb-02 14:33N 51°30' W 002°42'0 0.0
2016-Feb-02 13:33N 51°30' W 002°42'0 0.0
2016-Feb-02 12:33N 51°30' W 002°42'0 0.0
2016-Feb-02 11:34N 51°30' W 002°42'0 0.0
2016-Feb-02 10:33N 51°30' W 002°42'0 0.0
2016-Feb-02 09:33N 51°30' W 002°42'0 0.0
2016-Feb-02 08:33N 51°30' W 002°42'0 0.0
2016-Feb-02 07:33N 51°30' W 002°42'0 0.0
2016-Feb-02 06:33N 51°30' W 002°42'0 0.0
2016-Feb-02 05:33N 51°30' W 002°42'0 0.0
2016-Feb-02 04:33N 51°30' W 002°42'0 0.0
2016-Feb-02 03:33N 51°30' W 002°42'0 0.0
2016-Feb-02 02:33N 51°30' W 002°42'0 0.0
2016-Feb-02 01:33N 51°30' W 002°42'0 0.0
2016-Feb-02 00:33N 51°30' W 002°42'0 0.0
2016-Feb-01 23:33N 51°30' W 002°42'0 0.0
2016-Feb-01 22:33N 51°30' W 002°42'0 0.0
2016-Feb-01 21:33N 51°30' W 002°42'0 0.0
2016-Feb-01 20:31N 51°30' W 002°42'0 0.0
2016-Feb-01 19:33N 51°30' W 002°42'0 0.0
2016-Feb-01 18:33N 51°30' W 002°42'0 0.0
2016-Feb-01 17:34N 51°30' W 002°42'0 0.0
2016-Feb-01 16:33N 51°30' W 002°42'0 0.0
2016-Feb-01 15:33N 51°30' W 002°42'0 0.0
2016-Feb-01 14:34N 51°30' W 002°42'0 0.0
2016-Feb-01 13:33N 51°30' W 002°42'0 0.0
2016-Feb-01 12:33N 51°30' W 002°42'0 0.0
2016-Feb-01 11:33N 51°30' W 002°42'0 0.0
2016-Feb-01 10:33N 51°30' W 002°42'0 0.0
2016-Feb-01 09:33N 51°30' W 002°42'0 0.0
2016-Feb-01 08:33N 51°30' W 002°42'0 0.0
2016-Feb-01 07:33N 51°30' W 002°42'0 0.0
2016-Feb-01 06:33N 51°30' W 002°42'0 0.0
2016-Feb-01 05:33N 51°30' W 002°42'0 0.0
2016-Feb-01 04:33N 51°30' W 002°42'0 0.0
2016-Feb-01 03:33N 51°30' W 002°42'0 0.0
2016-Feb-01 02:33N 51°30' W 002°42'0 0.0
2016-Feb-01 01:33N 51°30' W 002°42'0 0.0
2016-Feb-01 00:33N 51°30' W 002°42'0 0.0
2016-Jan-31 23:33N 51°30' W 002°42'0 0.0
2016-Jan-31 22:33N 51°30' W 002°42'0 0.0
2016-Jan-31 21:33N 51°30' W 002°42'0 0.0
2016-Jan-31 20:33N 51°30' W 002°42'0 0.0
2016-Jan-31 19:33N 51°30' W 002°42'0 0.0
2016-Jan-31 18:33N 51°30' W 002°42'0 0.0
2016-Jan-31 17:33N 51°30' W 002°42'0 0.0
2016-Jan-31 16:33N 51°30' W 002°42'0 0.0
2016-Jan-31 15:33N 51°30' W 002°42'0 0.0
2016-Jan-31 14:33N 51°30' W 002°42'0 0.0
2016-Jan-31 13:33N 51°30' W 002°42'0 0.0
2016-Jan-31 12:34N 51°30' W 002°42'0 0.0
2016-Jan-31 11:33N 51°30' W 002°42'0 0.0
2016-Jan-31 10:33N 51°30' W 002°42'0 0.0
2016-Jan-31 09:33N 51°30' W 002°42'0 0.0
2016-Jan-31 08:33N 51°30' W 002°42'0 0.0
2016-Jan-31 07:31N 51°30' W 002°42'0 0.0
2016-Jan-31 06:31N 51°30' W 002°42'0 0.0
2016-Jan-31 05:31N 51°30' W 002°42'0 0.0
2016-Jan-31 04:31N 51°30' W 002°42'0 0.0
2016-Jan-31 03:31N 51°30' W 002°42'0 0.0
2016-Jan-31 02:31N 51°30' W 002°42'0 0.0
2016-Jan-31 01:31N 51°30' W 002°42'0 0.0
2016-Jan-31 00:31N 51°30' W 002°42'0 0.0
2016-Jan-30 23:31N 51°30' W 002°42'0 0.0
2016-Jan-30 22:31N 51°30' W 002°42'0 0.0
2016-Jan-30 21:34N 51°30' W 002°42'1 0.6
2016-Jan-30 20:34N 51°30' W 002°43'1 1.1
2016-Jan-30 19:34N 51°30' W 002°45'1414.5
2016-Jan-30 18:34N 51°24' W 003°06'85 5.6
2016-Jan-30 03:33N 50°42' W 005°03'1010.2
2016-Jan-30 02:33N 50°34' W 005°13'1010.0
2016-Jan-30 01:34N 50°27' W 005°24'10 9.9
2016-Jan-30 00:33N 50°19' W 005°34'112 9.4
2016-Jan-29 12:33N 48°27' W 005°41'8 8.3
2016-Jan-29 11:33N 48°21' W 005°33'8 7.6
2016-Jan-29 10:33N 48°14' W 005°27'8 8.2
2016-Jan-29 09:33N 48°08' W 005°20'150 9.9
2016-Jan-28 18:29N 46°29' W 002°33'1010.4
2016-Jan-28 17:33N 46°23' W 002°22'31 7.8
2016-Jan-28 13:33N 46°08' W 001°43'7 6.5
2016-Jan-28 12:33N 46°08' W 001°33'8 7.8
2016-Jan-28 11:34N 46°06' W 001°22'5 4.6
2016-Jan-28 10:32N 46°03' W 001°17'0 0.0
2016-Jan-28 09:32N 46°03' W 001°17'0 0.0
2016-Jan-28 08:32N 46°03' W 001°17'0 0.0
2016-Jan-28 07:32N 46°03' W 001°17'0 0.1
2016-Jan-28 06:29N 46°03' W 001°17'0 0.1
2016-Jan-28 05:32N 46°03' W 001°17'0 0.0
2016-Jan-28 04:32N 46°03' W 001°17'0 0.0
2016-Jan-28 02:29N 46°03' W 001°17'0 0.0
2016-Jan-28 01:32N 46°03' W 001°17'0 0.1
2016-Jan-28 00:32N 46°03' W 001°17'0 0.1
2016-Jan-27 23:32N 46°03' W 001°17'5 5.2
2016-Jan-27 22:34N 46°06' W 001°23'3 3.5
2016-Jan-27 21:33N 46°07' W 001°28'1111.0
2016-Jan-27 20:33N 46°13' W 001°41'1111.0
2016-Jan-27 19:33N 46°23' W 001°47'7 6.6
2016-Jan-27 18:33N 46°30' W 001°48'0 0.0
2016-Jan-27 17:31N 46°30' W 001°47'0 0.0
2016-Jan-27 16:31N 46°30' W 001°47'0 0.0
2016-Jan-27 15:31N 46°30' W 001°47'0 0.0
2016-Jan-27 14:31N 46°30' W 001°47'0 0.0
2016-Jan-27 13:31N 46°30' W 001°47'0 0.0
2016-Jan-27 12:31N 46°30' W 001°47'  
Track history (hours):
 
Tides and Currents Weather Stations Pressure Air Temp Water Temp Dewpoint Dewpoint Depression Visibility Wind Speed Wind Dir Waves Ship Positions

Arklow Rogue

Last reported at 2016-Feb-06 11:33 UTC. Time now 2016-Feb-08 12:27 UTC.
Position N 54°37' W 005°54'.

Length 90 m; draft 3.4 m.

Type: Cargo ship. MMSI: 250000960.

Date/timePositionNaut miles runAvg speedWind from/ knotsBaromVisibWave heightAir tempDewpointWater temp
2016-Feb-06 11:33N 54°37' W 005°54'0 0.0
2016-Feb-04 22:32N 54°37' W 005°54'8 8.3
2016-Feb-04 21:33N 54°42' W 005°43'10 9.7
2016-Feb-04 20:33N 54°40' W 005°27'1111.3
2016-Feb-04 19:34N 54°29' W 005°21'1010.4
2016-Feb-04 18:34N 54°19' W 005°19'1111.0
2016-Feb-04 17:31N 54°08' W 005°20'184 7.6
2016-Feb-03 17:25N 51°23' W 003°05'1011.2
2016-Feb-03 16:33N 51°28' W 002°52'6 6.1
2016-Feb-03 15:33N 51°30' W 002°43'0 0.3
2016-Feb-03 14:33N 51°30' W 002°42'0 0.0
2016-Feb-03 13:33N 51°30' W 002°42'0 0.0
2016-Feb-03 12:33N 51°30' W 002°42'0 0.0
2016-Feb-03 11:33N 51°30' W 002°42'0 0.0
2016-Feb-03 10:33N 51°30' W 002°42'0 0.0
2016-Feb-03 09:33N 51°30' W 002°42'0 0.0
2016-Feb-03 08:33N 51°30' W 002°42'0 0.0
2016-Feb-03 07:33N 51°30' W 002°42'0 0.0
2016-Feb-03 06:33N 51°30' W 002°42'0 0.0
2016-Feb-03 05:33N 51°30' W 002°42'0 0.0
2016-Feb-03 04:33N 51°30' W 002°42'0 0.0
2016-Feb-03 03:33N 51°30' W 002°42'0 0.0
2016-Feb-03 02:33N 51°30' W 002°42'0 0.0
2016-Feb-03 01:33N 51°30' W 002°42'0 0.0
2016-Feb-03 00:33N 51°30' W 002°42'0 0.0
2016-Feb-02 23:33N 51°30' W 002°42'0 0.0
2016-Feb-02 22:33N 51°30' W 002°42'0 0.0
2016-Feb-02 21:33N 51°30' W 002°42'0 0.0
2016-Feb-02 20:33N 51°30' W 002°42'0 0.0
2016-Feb-02 19:33N 51°30' W 002°42'0 0.0
2016-Feb-02 18:30N 51°30' W 002°42'0 0.0
2016-Feb-02 17:33N 51°30' W 002°42'0 0.0
2016-Feb-02 16:33N 51°30' W 002°42'0 0.0
2016-Feb-02 15:34N 51°30' W 002°42'0 0.0
2016-Feb-02 14:33N 51°30' W 002°42'0 0.0
2016-Feb-02 13:33N 51°30' W 002°42'0 0.0
2016-Feb-02 12:33N 51°30' W 002°42'0 0.0
2016-Feb-02 11:34N 51°30' W 002°42'0 0.0
2016-Feb-02 10:33N 51°30' W 002°42'0 0.0
2016-Feb-02 09:33N 51°30' W 002°42'0 0.0
2016-Feb-02 08:33N 51°30' W 002°42'0 0.0
2016-Feb-02 07:33N 51°30' W 002°42'0 0.0
2016-Feb-02 06:33N 51°30' W 002°42'0 0.0
2016-Feb-02 05:33N 51°30' W 002°42'0 0.0
2016-Feb-02 04:33N 51°30' W 002°42'0 0.0
2016-Feb-02 03:33N 51°30' W 002°42'0 0.0
2016-Feb-02 02:33N 51°30' W 002°42'0 0.0
2016-Feb-02 01:33N 51°30' W 002°42'0 0.0
2016-Feb-02 00:33N 51°30' W 002°42'0 0.0
2016-Feb-01 23:33N 51°30' W 002°42'0 0.0
2016-Feb-01 22:33N 51°30' W 002°42'0 0.0
2016-Feb-01 21:33N 51°30' W 002°42'0 0.0
2016-Feb-01 20:31N 51°30' W 002°42'0 0.0
2016-Feb-01 19:33N 51°30' W 002°42'0 0.0
2016-Feb-01 18:33N 51°30' W 002°42'0 0.0
2016-Feb-01 17:34N 51°30' W 002°42'0 0.0
2016-Feb-01 16:33N 51°30' W 002°42'0 0.0
2016-Feb-01 15:33N 51°30' W 002°42'0 0.0
2016-Feb-01 14:34N 51°30' W 002°42'0 0.0
2016-Feb-01 13:33N 51°30' W 002°42'0 0.0
2016-Feb-01 12:33N 51°30' W 002°42'0 0.0
2016-Feb-01 11:33N 51°30' W 002°42'0 0.0
2016-Feb-01 10:33N 51°30' W 002°42'0 0.0
2016-Feb-01 09:33N 51°30' W 002°42'0 0.0
2016-Feb-01 08:33N 51°30' W 002°42'0 0.0
2016-Feb-01 07:33N 51°30' W 002°42'0 0.0
2016-Feb-01 06:33N 51°30' W 002°42'0 0.0
2016-Feb-01 05:33N 51°30' W 002°42'0 0.0
2016-Feb-01 04:33N 51°30' W 002°42'0 0.0
2016-Feb-01 03:33N 51°30' W 002°42'0 0.0
2016-Feb-01 02:33N 51°30' W 002°42'0 0.0
2016-Feb-01 01:33N 51°30' W 002°42'0 0.0
2016-Feb-01 00:33N 51°30' W 002°42'0 0.0
2016-Jan-31 23:33N 51°30' W 002°42'0 0.0
2016-Jan-31 22:33N 51°30' W 002°42'0 0.0
2016-Jan-31 21:33N 51°30' W 002°42'0 0.0
2016-Jan-31 20:33N 51°30' W 002°42'0 0.0
2016-Jan-31 19:33N 51°30' W 002°42'0 0.0
2016-Jan-31 18:33N 51°30' W 002°42'0 0.0
2016-Jan-31 17:33N 51°30' W 002°42'0 0.0
2016-Jan-31 16:33N 51°30' W 002°42'0 0.0
2016-Jan-31 15:33N 51°30' W 002°42'0 0.0
2016-Jan-31 14:33N 51°30' W 002°42'0 0.0
2016-Jan-31 13:33N 51°30' W 002°42'0 0.0
2016-Jan-31 12:34N 51°30' W 002°42'0 0.0
2016-Jan-31 11:33N 51°30' W 002°42'0 0.0
2016-Jan-31 10:33N 51°30' W 002°42'0 0.0
2016-Jan-31 09:33N 51°30' W 002°42'0 0.0
2016-Jan-31 08:33N 51°30' W 002°42'0 0.0
2016-Jan-31 07:31N 51°30' W 002°42'0 0.0
2016-Jan-31 06:31N 51°30' W 002°42'0 0.0
2016-Jan-31 05:31N 51°30' W 002°42'0 0.0
2016-Jan-31 04:31N 51°30' W 002°42'0 0.0
2016-Jan-31 03:31N 51°30' W 002°42'0 0.0
2016-Jan-31 02:31N 51°30' W 002°42'0 0.0
2016-Jan-31 01:31N 51°30' W 002°42'0 0.0
2016-Jan-31 00:31N 51°30' W 002°42'0 0.0
2016-Jan-30 23:31N 51°30' W 002°42'0 0.0
2016-Jan-30 22:31N 51°30' W 002°42'0 0.0
2016-Jan-30 21:34N 51°30' W 002°42'1 0.6
2016-Jan-30 20:34N 51°30' W 002°43'1 1.1
2016-Jan-30 19:34N 51°30' W 002°45'1414.5
2016-Jan-30 18:34N 51°24' W 003°06'85 5.6
2016-Jan-30 03:33N 50°42' W 005°03'1010.2
2016-Jan-30 02:33N 50°34' W 005°13'1010.0
2016-Jan-30 01:34N 50°27' W 005°24'10 9.9
2016-Jan-30 00:33N 50°19' W 005°34'112 9.4
2016-Jan-29 12:33N 48°27' W 005°41'8 8.3
2016-Jan-29 11:33N 48°21' W 005°33'8 7.6
2016-Jan-29 10:33N 48°14' W 005°27'8 8.2
2016-Jan-29 09:33N 48°08' W 005°20'150 9.9
2016-Jan-28 18:29N 46°29' W 002°33'1010.4
2016-Jan-28 17:33N 46°23' W 002°22'31 7.8
2016-Jan-28 13:33N 46°08' W 001°43'7 6.5
2016-Jan-28 12:33N 46°08' W 001°33'8 7.8
2016-Jan-28 11:34N 46°06' W 001°22'5 4.6
2016-Jan-28 10:32N 46°03' W 001°17'0 0.0
2016-Jan-28 09:32N 46°03' W 001°17'0 0.0
2016-Jan-28 08:32N 46°03' W 001°17'0 0.0
2016-Jan-28 07:32N 46°03' W 001°17'0 0.1
2016-Jan-28 06:29N 46°03' W 001°17'0 0.1
2016-Jan-28 05:32N 46°03' W 001°17'0 0.0
2016-Jan-28 04:32N 46°03' W 001°17'0 0.0
2016-Jan-28 02:29N 46°03' W 001°17'0 0.0
2016-Jan-28 01:32N 46°03' W 001°17'0 0.1
2016-Jan-28 00:32N 46°03' W 001°17'0 0.1
2016-Jan-27 23:32N 46°03' W 001°17'5 5.2
2016-Jan-27 22:34N 46°06' W 001°23'3 3.5
2016-Jan-27 21:33N 46°07' W 001°28'1111.0
2016-Jan-27 20:33N 46°13' W 001°41'1111.0
2016-Jan-27 19:33N 46°23' W 001°47'7 6.6
2016-Jan-27 18:33N 46°30' W 001°48'0 0.0
2016-Jan-27 17:31N 46°30' W 001°47'0 0.0
2016-Jan-27 16:31N 46°30' W 001°47'0 0.0
2016-Jan-27 15:31N 46°30' W 001°47'0 0.0
2016-Jan-27 14:31N 46°30' W 001°47'0 0.0
2016-Jan-27 13:31N 46°30' W 001°47'0 0.0
2016-Jan-27 12:31N 46°30' W 001°47'  

Dump ship's entire track history